Time;durP1;ratioP1;P1;durP2;ratioP2;P2;SDS_P1;SDS_P2;PMS_P1;PMS_P2;Temp;Humidity;BMP_temperature;BMP_pressure;BME280_temperature;BME280_humidity;BME280_pressure;Samples;Min_cycle;Max_cycle;Signal;HPM_P1;HPM_P2
2024/02/28 00:00:16;;;;;;;34.10;18.00;;;;;;;0.71;61.95;101307.77;106984;1251;58459;-70
2024/02/28 00:02:43;;;;;;;32.10;18.60;;;;;;;0.68;62.07;101307.66;106981;1251;63045;-69
2024/02/28 00:05:10;;;;;;;30.10;17.60;;;;;;;0.64;62.09;101304.45;106967;1251;60304;-71
2024/02/28 00:07:36;;;;;;;29.60;17.50;;;;;;;0.59;62.18;101302.48;107031;1251;60439;-71
2024/02/28 00:10:03;;;;;;;29.40;18.20;;;;;;;0.54;62.44;101304.84;107137;1251;63767;-70
2024/02/28 00:12:30;;;;;;;39.10;18.80;;;;;;;0.53;62.60;101306.79;107118;1251;60362;-70
2024/02/28 00:14:57;;;;;;;34.80;19.30;;;;;;;0.52;62.64;101308.37;107114;1253;62648;-70
2024/02/28 00:17:24;;;;;;;31.70;19.00;;;;;;;0.52;62.80;101310.80;106864;1254;60552;-70
2024/02/28 00:19:51;;;;;;;32.80;17.80;;;;;;;0.51;62.96;101310.31;107022;1251;60486;-70
2024/02/28 00:22:17;;;;;;;31.80;18.20;;;;;;;0.47;62.97;101310.73;107086;1251;65616;-70
2024/02/28 00:24:44;;;;;;;31.00;18.30;;;;;;;0.43;63.15;101305.45;107065;1251;60440;-71
2024/02/28 00:27:11;;;;;;;32.90;18.70;;;;;;;0.42;63.23;101306.70;107090;1251;63779;-70
2024/02/28 00:29:38;;;;;;;36.30;19.60;;;;;;;0.42;63.32;101308.44;107050;1251;60451;-70
2024/02/28 00:32:06;;;;;;;31.80;18.10;;;;;;;0.40;63.42;101312.46;107046;1256;60396;-70
2024/02/28 00:34:32;;;;;;;34.80;18.70;;;;;;;0.38;63.46;101314.21;106879;1251;65175;-70
2024/02/28 00:36:59;;;;;;;35.40;19.40;;;;;;;0.38;63.59;101310.42;107109;1251;60316;-69
2024/02/28 00:39:26;;;;;;;32.60;19.70;;;;;;;0.39;63.86;101311.27;107094;1252;62512;-69
2024/02/28 00:41:52;;;;;;;31.60;18.00;;;;;;;0.40;63.92;101310.56;107069;1251;60477;-69
2024/02/28 00:44:19;;;;;;;33.30;19.10;;;;;;;0.38;63.93;101314.23;106922;1251;60355;-69
2024/02/28 00:46:46;;;;;;;33.20;18.30;;;;;;;0.37;63.99;101314.75;107080;1251;65172;-70
2024/02/28 00:49:13;;;;;;;34.60;19.30;;;;;;;0.37;64.03;101317.72;107072;1251;60476;-70
2024/02/28 00:51:39;;;;;;;37.20;18.90;;;;;;;0.36;64.12;101316.17;107139;1251;63990;-69
2024/02/28 00:54:08;;;;;;;35.70;19.00;;;;;;;0.36;64.23;101310.63;107085;1251;60381;-70
2024/02/28 00:56:34;;;;;;;34.70;19.20;;;;;;;0.37;64.31;101314.43;107061;1251;60430;-70
2024/02/28 00:59:01;;;;;;;31.40;19.20;;;;;;;0.36;64.39;101313.05;106964;1251;65273;-71
2024/02/28 01:01:28;;;;;;;32.00;19.30;;;;;;;0.36;64.37;101313.22;107159;1251;60476;-70
2024/02/28 01:03:55;;;;;;;28.80;18.80;;;;;;;0.35;64.30;101312.03;106963;1253;64036;-71
2024/02/28 01:06:22;;;;;;;32.00;19.50;;;;;;;0.34;64.39;101307.04;106902;1251;60320;-70
2024/02/28 01:08:49;;;;;;;31.00;19.10;;;;;;;0.34;64.47;101309.14;107131;1251;60470;-70
2024/02/28 01:11:15;;;;;;;33.30;17.90;;;;;;;0.32;64.53;101308.47;107114;1251;65097;-69
2024/02/28 01:13:42;;;;;;;31.00;18.50;;;;;;;0.32;64.62;101308.84;106960;1252;60559;-69
2024/02/28 01:16:09;;;;;;;33.50;18.00;;;;;;;0.34;64.90;101305.84;106946;1251;63845;-69
2024/02/28 01:18:35;;;;;;;33.80;18.50;;;;;;;0.38;64.97;101309.05;107092;1251;60338;-70
2024/02/28 01:21:02;;;;;;;32.70;18.80;;;;;;;0.40;65.10;101307.61;107076;1251;60560;-71
2024/02/28 01:23:29;;;;;;;30.40;18.00;;;;;;;0.41;65.19;101310.52;106919;1251;63957;-70
2024/02/28 01:25:56;;;;;;;34.20;18.40;;;;;;;0.42;65.31;101308.27;107121;1251;60403;-73
2024/02/28 01:28:23;;;;;;;33.60;18.20;;;;;;;0.41;65.35;101304.45;107120;1251;63738;-73
2024/02/28 01:30:49;;;;;;;34.70;18.70;;;;;;;0.43;65.40;101307.20;107048;1251;60536;-70
2024/02/28 01:33:16;;;;;;;31.70;19.20;;;;;;;0.43;65.42;101305.62;107140;1251;60361;-70
2024/02/28 01:35:43;;;;;;;32.10;18.10;;;;;;;0.42;65.49;101306.17;107063;1251;65049;-71
2024/02/28 01:38:10;;;;;;;34.30;18.00;;;;;;;0.41;65.59;101304.98;106964;1251;60415;-70
2024/02/28 01:40:36;;;;;;;31.00;18.40;;;;;;;0.41;65.68;101303.94;106882;1251;63907;-70
2024/02/28 01:43:12;;;;;;;32.80;17.50;;;;;;;0.42;65.75;101303.58;107101;1251;60440;-71
2024/02/28 01:45:39;;;;;;;33.00;17.90;;;;;;;0.44;65.85;101305.25;107079;1251;59308;-70
2024/02/28 01:48:09;;;;;;;29.30;17.00;;;;;;;0.47;65.89;101303.96;107070;1251;63889;-70
2024/02/28 01:50:37;;;;;;;34.50;18.00;;;;;;;0.48;65.85;101306.04;106916;1251;60374;-70
2024/02/28 01:53:04;;;;;;;31.10;17.10;;;;;;;0.49;66.10;101306.20;106899;1251;62703;-73
2024/02/28 01:55:31;;;;;;;31.10;17.80;;;;;;;0.52;66.16;101310.09;106971;1256;60770;-71
2024/02/28 01:57:58;;;;;;;33.60;18.30;;;;;;;0.56;66.24;101311.39;106938;1251;60448;-71
2024/02/28 02:00:25;;;;;;;32.10;17.10;;;;;;;0.58;66.23;101307.89;106943;1251;65167;-72
2024/02/28 02:02:51;;;;;;;32.00;17.30;;;;;;;0.60;66.22;101311.51;106921;1251;60435;-72
2024/02/28 02:05:20;;;;;;;34.40;17.10;;;;;;;0.59;66.26;101313.95;107074;1254;63820;-72
2024/02/28 02:07:49;;;;;;;32.70;17.10;;;;;;;0.55;66.24;101310.19;107045;1251;60439;-72
2024/02/28 02:10:16;;;;;;;30.50;17.80;;;;;;;0.47;66.39;101310.71;106915;1251;60443;-68
2024/02/28 02:12:42;;;;;;;27.20;16.50;;;;;;;0.46;66.50;101310.94;106874;1251;65265;-68
2024/02/28 02:15:10;;;;;;;26.90;15.90;;;;;;;0.51;66.41;101305.79;107135;1251;60358;-68
2024/02/28 02:17:36;;;;;;;28.80;17.00;;;;;;;0.54;66.31;101302.77;106946;1251;62613;-68
2024/02/28 02:20:03;;;;;;;29.00;16.40;;;;;;;0.54;66.36;101303.63;107060;1251;60307;-68
2024/02/28 02:22:48;;;;;;;32.20;16.10;;;;;;;0.55;66.29;101305.15;106969;1251;60369;-68
2024/02/28 02:25:33;;;;;;;28.00;17.50;;;;;;;0.58;66.37;101300.44;107022;1251;64889;-69
2024/02/28 02:28:00;;;;;;;31.00;17.70;;;;;;;0.61;66.44;101305.73;106862;1251;60488;-68
2024/02/28 02:30:26;;;;;;;32.80;17.70;;;;;;;0.67;66.57;101300.73;107146;1251;60514;-68
2024/02/28 02:32:53;;;;;;;37.00;20.10;;;;;;;0.74;66.72;101293.63;107145;1251;60818;-69
2024/02/28 02:35:20;;;;;;;41.90;21.90;;;;;;;0.81;66.65;101293.45;106987;1251;60435;-69
2024/02/28 02:37:47;;;;;;;36.60;21.30;;;;;;;0.88;66.64;101295.38;107082;1251;65349;-69
2024/02/28 02:40:15;;;;;;;31.70;20.00;;;;;;;0.95;66.58;101295.89;107145;1254;60473;-69
2024/02/28 02:42:41;;;;;;;33.30;18.10;;;;;;;1.02;66.47;101296.41;107166;1253;63820;-69
2024/02/28 02:45:09;;;;;;;33.60;17.60;;;;;;;1.09;66.34;101300.57;107042;1252;60521;-69
2024/02/28 02:47:36;;;;;;;33.60;17.80;;;;;;;1.14;66.20;101300.09;107231;1251;60323;-69
2024/02/28 02:50:03;;;;;;;31.70;16.20;;;;;;;1.20;65.98;101301.86;107203;1251;63804;-69
2024/02/28 02:52:30;;;;;;;29.20;15.20;;;;;;;1.25;65.89;101304.84;107201;1251;60469;-69
2024/02/28 02:54:57;;;;;;;29.80;15.20;;;;;;;1.28;65.66;101303.05;107165;1254;62599;-69
2024/02/28 02:57:23;;;;;;;28.90;14.90;;;;;;;1.30;65.36;101302.80;107066;1256;60554;-72
2024/02/28 02:59:50;;;;;;;28.10;14.10;;;;;;;1.33;65.20;101305.84;107222;1251;60537;-69
2024/02/28 03:02:17;;;;;;;26.50;13.40;;;;;;;1.35;65.05;101303.19;107143;1251;64876;-68
2024/02/28 03:04:43;;;;;;;23.30;12.70;;;;;;;1.36;64.87;101303.33;107228;1251;60638;-68
2024/02/28 03:07:10;;;;;;;25.00;13.40;;;;;;;1.38;64.66;101303.63;107115;1251;63766;-68
2024/02/28 03:09:38;;;;;;;25.60;13.10;;;;;;;1.38;64.53;101303.27;107127;1251;60343;-68
2024/02/28 03:12:05;;;;;;;24.00;13.40;;;;;;;1.39;64.37;101306.19;107219;1251;60302;-71
2024/02/28 03:14:32;;;;;;;23.00;12.60;;;;;;;1.41;64.26;101305.43;107139;1251;65101;-70
2024/02/28 03:16:59;;;;;;;22.30;13.20;;;;;;;1.43;64.08;101304.51;106982;1251;60441;-70
2024/02/28 03:19:26;;;;;;;26.30;13.60;;;;;;;1.44;63.90;101303.45;107176;1251;62832;-69
2024/02/28 03:21:52;;;;;;;24.70;12.70;;;;;;;1.44;63.76;101302.23;107230;1251;60381;-71
2024/02/28 03:24:19;;;;;;;27.00;13.30;;;;;;;1.45;63.62;101299.63;107138;1251;60419;-71
2024/02/28 03:26:46;;;;;;;24.10;12.40;;;;;;;1.43;63.49;101302.59;107117;1252;64973;-71
2024/02/28 03:29:13;;;;;;;26.10;12.40;;;;;;;1.43;63.39;101303.66;107129;1253;60522;-70
2024/02/28 03:31:39;;;;;;;25.10;13.00;;;;;;;1.42;63.38;101308.19;107124;1251;62716;-70
2024/02/28 03:34:06;;;;;;;23.10;12.00;;;;;;;1.42;63.20;101311.50;107157;1251;60303;-70
2024/02/28 03:36:33;;;;;;;24.70;11.50;;;;;;;1.42;63.12;101312.36;107105;1250;60359;-70
2024/02/28 03:39:00;;;;;;;25.60;12.10;;;;;;;1.42;63.03;101312.71;107105;1251;65320;-70
2024/02/28 03:41:27;;;;;;;25.90;12.20;;;;;;;1.41;62.97;101317.92;107083;1251;66941;-70
2024/02/28 03:43:53;;;;;;;22.50;12.30;;;;;;;1.41;62.83;101318.27;107011;1253;63850;-70
2024/02/28 03:46:21;;;;;;;23.40;12.40;;;;;;;1.40;62.74;101320.23;107189;1254;60467;-70
2024/02/28 03:48:48;;;;;;;24.20;11.90;;;;;;;1.40;62.74;101318.31;107196;1251;60380;-70
2024/02/28 03:51:15;;;;;;;23.60;12.20;;;;;;;1.41;62.62;101324.73;107133;1251;65192;-71
2024/02/28 03:53:41;;;;;;;22.10;11.70;;;;;;;1.42;62.51;101325.03;107016;1251;60476;-70
2024/02/28 03:56:08;;;;;;;23.20;11.30;;;;;;;1.42;62.43;101326.42;107135;1251;62598;-70
2024/02/28 03:58:35;;;;;;;21.80;11.40;;;;;;;1.42;62.39;101331.79;107068;1251;60463;-70
2024/02/28 04:01:02;;;;;;;24.20;10.70;;;;;;;1.41;62.34;101330.27;107135;1251;60364;-70
2024/02/28 04:03:29;;;;;;;19.30;9.10;;;;;;;1.41;62.27;101326.45;107132;1251;64006;-70
2024/02/28 04:05:56;;;;;;;19.90;9.40;;;;;;;1.41;62.18;101330.27;106966;1251;60492;-70
2024/02/28 04:08:22;;;;;;;18.50;9.00;;;;;;;1.40;62.14;101333.58;107134;1254;63724;-70
2024/02/28 04:10:50;;;;;;;18.10;8.70;;;;;;;1.40;62.07;101334.11;106973;1251;60429;-70
2024/02/28 04:13:17;;;;;;;19.20;8.30;;;;;;;1.40;61.97;101335.50;107171;1251;60426;-69
2024/02/28 04:15:45;;;;;;;16.50;8.80;;;;;;;1.40;61.90;101337.41;106895;1251;64284;-69
2024/02/28 04:18:13;;;;;;;17.90;8.20;;;;;;;1.40;61.81;101337.42;107110;1251;60420;-71
2024/02/28 04:20:40;;;;;;;16.00;8.70;;;;;;;1.40;61.87;101340.37;106944;1251;64025;-71
2024/02/28 04:23:06;;;;;;;19.10;8.10;;;;;;;1.40;61.76;101341.74;106779;1251;59237;-71
2024/02/28 04:25:34;;;;;;;20.20;8.90;;;;;;;1.39;61.70;101343.66;106844;1251;60395;-71
2024/02/28 04:28:01;;;;;;;18.20;8.50;;;;;;;1.39;61.61;101346.30;106942;1251;65553;-71
2024/02/28 04:30:28;;;;;;;15.80;8.00;;;;;;;1.38;61.52;101347.02;107122;1251;60470;-71
2024/02/28 04:32:55;;;;;;;20.70;8.50;;;;;;;1.37;61.52;101350.86;107161;1251;64014;-70
2024/02/28 04:35:22;;;;;;;13.60;7.20;;;;;;;1.37;61.44;101349.12;106955;1257;60537;-70
2024/02/28 04:37:48;;;;;;;18.30;7.50;;;;;;;1.37;61.36;101350.52;106499;1253;275549;-73
2024/02/28 04:40:15;;;;;;;15.60;7.70;;;;;;;1.35;61.27;101354.02;106989;1252;65016;-73
2024/02/28 04:42:45;;;;;;;21.50;8.00;;;;;;;1.34;61.20;101359.43;107018;1251;60470;-73
2024/02/28 04:45:12;;;;;;;20.50;7.80;;;;;;;1.32;61.12;101357.22;107071;1251;64142;-68
2024/02/28 04:47:38;;;;;;;14.40;7.70;;;;;;;1.31;61.16;101358.97;107133;1251;60434;-68
2024/02/28 04:50:11;;;;;;;15.20;7.40;;;;;;;1.32;61.08;101361.73;107096;1252;60306;-68
2024/02/28 04:52:38;;;;;;;18.60;9.00;;;;;;;1.31;61.00;101363.14;106930;1251;65385;-68
2024/02/28 04:55:05;;;;;;;18.60;9.20;;;;;;;1.31;60.95;101364.20;107137;1251;60546;-69
2024/02/28 04:57:31;;;;;;;19.00;8.70;;;;;;;1.31;60.99;101361.79;107155;1251;62799;-69
2024/02/28 04:59:58;;;;;;;19.60;9.60;;;;;;;1.31;60.96;101363.34;107063;1251;59187;-69
2024/02/28 05:02:25;;;;;;;17.90;8.90;;;;;;;1.31;60.90;101364.89;107123;1251;60434;-69
2024/02/28 05:04:52;;;;;;;17.10;9.50;;;;;;;1.31;60.95;101364.20;107152;1251;64915;-69
2024/02/28 05:07:19;;;;;;;25.40;10.20;;;;;;;1.31;60.89;101364.36;107124;1251;60571;-70
2024/02/28 05:09:45;;;;;;;17.20;9.10;;;;;;;1.32;60.83;101365.20;106912;1253;62536;-70
2024/02/28 05:12:12;;;;;;;17.60;9.10;;;;;;;1.34;60.86;101368.98;107110;1251;60555;-70
2024/02/28 05:14:39;;;;;;;16.40;8.80;;;;;;;1.35;60.90;101369.98;106896;1251;60467;-71
2024/02/28 05:17:06;;;;;;;20.20;9.30;;;;;;;1.36;60.84;101367.38;107115;1250;64172;-70
2024/02/28 05:19:32;;;;;;;22.40;9.50;;;;;;;1.36;60.80;101365.98;107120;1250;60455;-70
2024/02/28 05:22:01;;;;;;;16.40;8.10;;;;;;;1.37;60.76;101373.23;107136;1251;63817;-72
2024/02/28 05:24:27;;;;;;;17.50;8.10;;;;;;;1.38;60.76;101371.30;107171;1251;60374;-70
2024/02/28 05:26:54;;;;;;;20.30;8.90;;;;;;;1.40;60.76;101375.58;107020;1251;60432;-71
2024/02/28 05:29:21;;;;;;;19.20;8.70;;;;;;;1.42;60.71;101379.50;107104;1251;65180;-70
2024/02/28 05:31:48;;;;;;;18.20;8.80;;;;;;;1.45;60.68;101379.63;106992;1251;60540;-70
2024/02/28 05:34:16;;;;;;;23.60;9.80;;;;;;;1.48;60.66;101382.16;107067;1251;63186;-70
2024/02/28 05:36:43;;;;;;;29.50;9.90;;;;;;;1.53;60.60;101384.61;106996;1257;60409;-69
2024/02/28 05:39:09;;;;;;;20.60;8.60;;;;;;;1.54;60.54;101387.55;107048;1251;60342;-70
2024/02/28 05:41:36;;;;;;;18.90;8.70;;;;;;;1.56;60.47;101389.07;106962;1251;63856;-70
2024/02/28 05:44:03;;;;;;;18.30;9.00;;;;;;;1.58;60.50;101391.27;106977;1251;58528;-70
2024/02/28 05:46:30;;;;;;;23.20;8.70;;;;;;;1.61;60.51;101392.91;107150;1251;64003;-70
2024/02/28 05:48:57;;;;;;;22.20;8.90;;;;;;;1.69;60.43;101393.92;107169;1251;60486;-70
2024/02/28 05:51:24;;;;;;;18.40;8.60;;;;;;;1.74;60.38;101394.66;107135;1251;60453;-69
2024/02/28 05:53:51;;;;;;;17.40;8.50;;;;;;;1.79;60.35;101393.30;107146;1251;65206;-69
2024/02/28 05:56:19;;;;;;;20.70;10.20;;;;;;;1.83;60.29;101391.46;107124;1253;60354;-70
2024/02/28 05:58:46;;;;;;;43.10;19.20;;;;;;;1.84;60.28;101394.56;107096;1251;62604;-69
2024/02/28 06:01:19;;;;;;;31.40;15.30;;;;;;;1.88;60.25;101393.06;107077;1251;60395;-70
2024/02/28 06:03:50;;;;;;;;;;;;;;;1.84;60.12;101393.52;106936;1251;60498;-69
2024/02/28 06:06:17;;;;;;;37.30;18.30;;;;;;;1.84;60.11;101392.67;107012;1252;67026;-70
2024/02/28 06:08:44;;;;;;;25.80;10.90;;;;;;;1.85;60.08;101385.88;106937;1251;59263;-69
2024/02/28 06:11:11;;;;;;;21.20;10.00;;;;;;;1.87;60.11;101388.59;107136;1251;63802;-70
2024/02/28 06:13:40;;;;;;;26.60;12.00;;;;;;;1.89;60.09;101389.55;107119;1251;60524;-70
2024/02/28 06:16:07;;;;;;;24.00;9.20;;;;;;;1.92;60.06;101390.70;106989;1251;60855;-70
2024/02/28 06:18:34;;;;;;;23.00;8.90;;;;;;;1.93;60.09;101389.10;107010;1251;64862;-70
2024/02/28 06:21:01;;;;;;;18.60;8.20;;;;;;;1.97;60.06;101388.48;106883;1251;60456;-71
2024/02/28 06:23:28;;;;;;;19.50;8.30;;;;;;;2.01;60.02;101387.14;107111;1255;64018;-71
2024/02/28 06:25:56;;;;;;;20.60;8.40;;;;;;;2.04;59.99;101389.69;106919;1250;60473;-72
2024/02/28 06:28:24;;;;;;;22.90;9.00;;;;;;;2.04;59.92;101390.38;107142;1251;58771;-73
2024/02/28 06:30:51;;;;;;;25.50;9.60;;;;;;;2.06;59.90;101388.94;106943;1251;65005;-74
2024/02/28 06:33:18;;;;;;;29.20;8.90;;;;;;;2.07;59.90;101386.64;106922;1250;60366;-73
2024/02/28 06:35:45;;;;;;;25.70;8.70;;;;;;;2.08;59.87;101382.60;106864;1251;64095;-71
2024/02/28 06:38:12;;;;;;;24.90;9.70;;;;;;;2.10;59.83;101383.77;107322;1251;59431;-69
2024/02/28 06:40:39;;;;;;;22.90;9.20;;;;;;;2.14;59.93;101380.54;106984;1251;60477;-69
2024/02/28 06:43:06;;;;;;;22.50;9.10;;;;;;;2.19;59.87;101380.03;107069;1251;65222;-69
2024/02/28 06:45:33;;;;;;;26.80;10.00;;;;;;;2.22;59.76;101379.42;107071;1251;61038;-69
2024/02/28 06:48:00;;;;;;;29.80;10.40;;;;;;;2.24;59.78;101376.06;107107;1251;64080;-69
2024/02/28 06:50:26;;;;;;;30.00;11.20;;;;;;;2.30;59.67;101376.94;107215;1250;60523;-71
2024/02/28 06:52:53;;;;;;;29.40;11.10;;;;;;;2.35;59.67;101376.11;107111;1251;60457;-71
2024/02/28 06:55:20;;;;;;;27.00;10.80;;;;;;;2.40;59.59;101371.95;107127;1251;65147;-68
2024/02/28 06:57:47;;;;;;;21.60;9.30;;;;;;;2.45;59.48;101374.95;107177;1251;60271;-70
2024/02/28 07:00:18;;;;;;;20.10;10.10;;;;;;;2.49;59.52;101371.31;107145;1253;63737;-71
2024/02/28 07:02:45;;;;;;;23.30;9.30;;;;;;;2.55;59.47;101369.92;107032;1252;60454;-71
2024/02/28 07:05:12;;;;;;;18.30;8.60;;;;;;;2.59;59.46;101371.02;107147;1251;60377;-73
2024/02/28 07:07:39;;;;;;;20.00;7.90;;;;;;;2.64;59.40;101373.85;106967;1251;63674;-73
2024/02/28 07:10:07;;;;;;;23.20;7.90;;;;;;;2.68;59.41;101371.61;107105;1251;60572;-71
2024/02/28 07:12:34;;;;;;;33.00;8.70;;;;;;;2.75;59.31;101371.08;106983;1251;63986;-71
2024/02/28 07:15:02;;;;;;;19.40;7.00;;;;;;;2.80;59.25;101368.81;106992;1252;60469;-71
2024/02/28 07:17:29;;;;;;;21.90;7.30;;;;;;;2.84;58.97;101366.42;106924;1253;61050;-72
2024/02/28 07:19:56;;;;;;;20.60;7.90;;;;;;;2.89;58.96;101364.36;107160;1253;65299;-73
2024/02/28 07:22:23;;;;;;;21.70;7.60;;;;;;;2.97;59.07;101366.20;107120;1252;60361;-73
2024/02/28 07:24:50;;;;;;;26.70;7.80;;;;;;;3.04;58.93;101366.48;107138;1252;66019;-72
2024/02/28 07:27:16;;;;;;;18.30;7.50;;;;;;;3.08;58.77;101361.63;107008;1253;60469;-72
2024/02/28 07:29:43;;;;;;;17.70;6.90;;;;;;;3.12;58.62;101359.07;107079;1254;60456;-73
2024/02/28 07:32:10;;;;;;;17.70;6.90;;;;;;;3.16;58.47;101357.39;106870;1251;64980;-72
2024/02/28 07:34:37;;;;;;;19.50;7.00;;;;;;;3.21;58.51;101359.67;107050;1251;60441;-73
2024/02/28 07:37:05;;;;;;;21.70;6.50;;;;;;;3.27;58.42;101361.38;106996;1252;64409;-73
2024/02/28 07:39:32;;;;;;;23.20;7.80;;;;;;;3.34;58.39;101359.92;106928;1251;60483;-72
2024/02/28 07:41:59;;;;;;;25.10;8.00;;;;;;;3.42;58.24;101362.41;107106;1251;61161;-72
2024/02/28 07:44:26;;;;;;;22.30;8.30;;;;;;;3.49;58.06;101362.03;107030;1253;66878;-73
2024/02/28 07:46:55;;;;;;;23.30;8.30;;;;;;;3.55;58.04;101364.76;107141;1251;65228;-72
2024/02/28 07:49:22;;;;;;;25.40;8.30;;;;;;;3.62;58.00;101367.83;107034;1253;65766;-72
2024/02/28 07:51:52;;;;;;;22.90;8.20;;;;;;;3.69;57.91;101365.33;106936;1251;60323;-72
2024/02/28 07:54:18;;;;;;;24.40;8.60;;;;;;;3.80;57.94;101367.73;107163;1251;60368;-72
2024/02/28 07:56:45;;;;;;;33.40;10.10;;;;;;;3.93;57.95;101371.60;107119;1251;64893;-72
2024/02/28 07:59:12;;;;;;;32.50;10.00;;;;;;;4.08;57.84;101379.98;107157;1251;60912;-72
2024/02/28 08:01:39;;;;;;;30.10;10.10;;;;;;;4.19;57.49;101381.27;107148;1253;65710;-74
2024/02/28 08:08:07;;;;;;;32.50;10.50;;;;;;;4.35;56.79;101385.91;107096;1251;60489;-72
2024/02/28 08:10:35;;;;;;;29.30;9.90;;;;;;;4.42;56.79;101387.59;107081;1253;67027;-73
2024/02/28 08:13:02;;;;;;;19.30;8.80;;;;;;;4.53;56.75;101389.61;106992;1252;60438;-71
2024/02/28 08:15:29;;;;;;;22.30;8.30;;;;;;;4.63;56.42;101391.30;107137;1251;65976;-71
2024/02/28 08:17:56;;;;;;;23.80;9.10;;;;;;;4.71;56.23;101386.15;106936;1251;60684;-71
2024/02/28 08:20:22;;;;;;;22.90;8.20;;;;;;;4.80;56.13;101386.83;107111;1252;60368;-70
2024/02/28 08:22:50;;;;;;;24.60;8.90;;;;;;;4.90;56.01;101386.23;107117;1253;65803;-72
2024/02/28 08:25:17;;;;;;;20.80;8.60;;;;;;;5.01;55.92;101387.38;107214;1253;59244;-71
2024/02/28 08:27:44;;;;;;;24.70;9.10;;;;;;;5.15;55.91;101381.38;107150;1253;65782;-70
2024/02/28 08:30:11;;;;;;;26.20;9.60;;;;;;;5.30;55.62;101376.96;107041;1251;60495;-71
2024/02/28 08:32:38;;;;;;;25.80;10.20;;;;;;;5.40;55.18;101372.33;107111;1252;60483;-70
2024/02/28 08:35:07;;;;;;;33.20;11.80;;;;;;;5.47;54.83;101366.10;107147;1251;66730;-71
2024/02/28 08:37:34;;;;;;;26.00;10.40;;;;;;;5.57;54.80;101365.34;107119;1251;60450;-72
2024/02/28 08:40:01;;;;;;;24.10;9.50;;;;;;;5.71;54.78;101360.87;107062;1254;64722;-72
2024/02/28 08:42:29;;;;;;;26.70;8.90;;;;;;;5.87;54.64;101361.05;107127;1252;60527;-71
2024/02/28 08:44:56;;;;;;;33.00;9.30;;;;;;;6.00;54.31;101359.79;107109;1253;60412;-72
2024/02/28 08:47:24;;;;;;;28.60;9.30;;;;;;;6.11;53.96;101357.90;107042;1251;65708;-73
2024/02/28 08:49:51;;;;;;;34.40;8.80;;;;;;;6.22;53.80;101358.79;106871;1253;60372;-71
2024/02/28 08:52:20;;;;;;;35.20;12.40;;;;;;;6.34;53.65;101352.80;106846;1251;65405;-71
2024/02/28 08:54:48;;;;;;;31.30;11.50;;;;;;;6.49;53.21;101356.12;106976;1253;60882;-69
2024/02/28 08:57:15;;;;;;;28.30;11.30;;;;;;;6.62;52.86;101347.67;107118;1251;60551;-72
2024/02/28 08:59:42;;;;;;;25.80;9.50;;;;;;;6.76;52.66;101346.26;106930;1253;66854;-71
2024/02/28 09:02:11;;;;;;;24.80;8.10;;;;;;;6.93;52.44;101343.19;107099;1251;60329;-71
2024/02/28 09:04:38;;;;;;;32.40;8.30;;;;;;;7.09;52.25;101340.29;107069;1255;65474;-71
2024/02/28 09:07:04;;;;;;;29.50;8.00;;;;;;;7.26;51.99;101338.40;107169;1251;60521;-70
2024/02/28 09:09:36;;;;;;;20.20;7.50;;;;;;;7.41;51.78;101336.02;106860;1252;60356;-70
2024/02/28 09:12:03;;;;;;;27.10;8.00;;;;;;;7.58;51.46;101331.13;107197;1252;65808;-71
2024/02/28 09:14:31;;;;;;;28.60;8.10;;;;;;;7.74;51.02;101330.34;106846;1252;58393;-71
2024/02/28 09:17:03;;;;;;;31.40;8.90;;;;;;;7.86;50.63;101332.13;107852;1252;65323;-71
2024/02/28 09:19:30;;;;;;;25.70;8.00;;;;;;;7.99;50.26;101329.34;109419;1250;58377;-72
2024/02/28 09:21:57;;;;;;;24.60;7.00;;;;;;;8.13;50.03;101327.88;109422;1250;58097;-72
2024/02/28 09:24:25;;;;;;;20.90;6.10;;;;;;;8.25;50.17;101329.32;109453;1253;66666;-73
2024/02/28 09:26:52;;;;;;;16.50;5.20;;;;;;;8.36;50.26;101327.36;109411;1252;60298;-70
2024/02/28 09:29:19;;;;;;;25.00;6.10;;;;;;;8.45;50.31;101326.88;108438;1253;63836;-73
2024/02/28 09:31:46;;;;;;;20.20;5.90;;;;;;;8.54;50.47;101329.87;108434;1251;60269;-74
2024/02/28 09:34:13;;;;;;;19.10;6.10;;;;;;;8.67;50.24;101333.71;109418;1251;58563;-73
2024/02/28 09:36:45;;;;;;;25.40;6.20;;;;;;;8.78;49.69;101334.84;109277;1251;65843;-73
2024/02/28 09:39:15;;;;;;;22.50;6.00;;;;;;;8.84;49.48;101332.54;109482;1250;58259;-74
2024/02/28 09:41:42;;;;;;;20.40;5.90;;;;;;;8.91;49.35;101328.13;109237;1251;65726;-71
2024/02/28 09:44:09;;;;;;;22.00;5.90;;;;;;;8.95;49.21;101329.48;109278;1253;58227;-72
2024/02/28 09:46:36;;;;;;;18.60;5.50;;;;;;;8.97;48.99;101328.14;109263;1251;58206;-73
2024/02/28 09:49:07;;;;;;;30.40;6.30;;;;;;;8.95;48.71;101332.14;109420;1251;66829;-71
2024/02/28 09:51:35;;;;;;;18.60;5.70;;;;;;;8.91;48.53;101335.90;107554;1251;60564;-70
2024/02/28 09:54:05;;;;;;;18.00;6.10;;;;;;;8.85;48.60;101341.65;107032;1253;65568;-70
2024/02/28 09:56:34;;;;;;;19.70;5.40;;;;;;;8.82;48.64;101346.18;106946;1254;60550;-70
2024/02/28 10:03:54;;;;;;;21.90;5.20;;;;;;;8.94;48.64;101337.09;107139;1251;65782;-74
2024/02/28 10:06:21;;;;;;;17.70;4.80;;;;;;;9.05;48.68;101335.92;106995;1257;60356;-69
2024/02/28 10:08:48;;;;;;;18.40;4.60;;;;;;;9.17;48.67;101336.65;107084;1253;63394;-72
2024/02/28 10:11:22;;;;;;;18.80;5.10;;;;;;;9.27;48.22;101332.74;107051;1251;60457;-71
2024/02/28 10:13:49;;;;;;;19.00;5.80;;;;;;;9.29;48.04;101328.94;107169;1253;60322;-71
2024/02/28 10:16:20;;;;;;;21.10;5.60;;;;;;;9.35;48.25;101329.62;106936;1252;66710;-73
2024/02/28 10:18:51;;;;;;;21.20;5.90;;;;;;;9.46;48.07;101325.30;106809;1253;60514;-73
2024/02/28 10:21:18;;;;;;;16.00;5.10;;;;;;;9.53;47.84;101325.19;106869;1252;65496;-73
2024/02/28 10:23:45;;;;;;;19.30;5.40;;;;;;;9.59;47.54;101326.05;107124;1254;59289;-70
2024/02/28 10:26:13;;;;;;;18.00;5.20;;;;;;;9.65;47.47;101324.61;106996;1251;60036;-72
2024/02/28 10:28:43;;;;;;;21.20;5.20;;;;;;;9.72;47.46;101324.72;107256;1251;65460;-70
2024/02/28 10:31:10;;;;;;;23.50;5.70;;;;;;;9.81;47.18;101322.41;107196;1253;60459;-71
2024/02/28 10:33:37;;;;;;;19.20;5.00;;;;;;;9.88;46.96;101320.92;107016;1256;65791;-71
2024/02/28 10:36:05;;;;;;;17.40;5.00;;;;;;;9.96;46.99;101322.19;107003;1253;60498;-72
2024/02/28 10:38:38;;;;;;;14.90;5.10;;;;;;;10.10;47.18;101323.60;107156;1251;60412;-71
2024/02/28 10:41:05;;;;;;;21.50;6.00;;;;;;;10.22;46.89;101323.73;106981;1253;66705;-71
2024/02/28 10:43:37;;;;;;;24.10;5.80;;;;;;;10.29;46.76;101321.56;107105;1251;66708;-73
2024/02/28 10:46:05;;;;;;;24.20;6.00;;;;;;;10.29;46.68;101317.70;107121;1254;65851;-71
2024/02/28 10:48:54;;;;;;;19.90;5.60;;;;;;;10.31;46.48;101317.05;107019;1253;60479;-72
2024/02/28 10:51:27;;;;;;;19.80;6.10;;;;;;;10.30;46.33;101317.13;107170;1252;60455;-72
2024/02/28 10:54:23;;;;;;;22.10;4.80;;;;;;;10.32;46.71;101316.59;107110;1251;66979;-72
2024/02/28 10:56:50;;;;;;;23.80;5.90;;;;;;;10.40;46.58;101319.80;107103;1251;60319;-69
2024/02/28 10:59:17;;;;;;;22.70;6.00;;;;;;;10.43;46.53;101317.02;107096;1251;65708;-68
2024/02/28 11:01:44;;;;;;;21.20;5.90;;;;;;;10.44;46.62;101311.65;106954;1252;60505;-69
2024/02/28 11:04:12;;;;;;;37.90;6.80;;;;;;;10.44;45.99;101309.52;107023;1253;59501;-69
2024/02/28 11:06:53;;;;;;;33.40;6.50;;;;;;;10.37;45.98;101309.48;107048;1256;65809;-68
2024/02/28 11:09:27;;;;;;;21.70;5.60;;;;;;;10.31;46.13;101302.40;106874;1252;60507;-68
2024/02/28 11:11:55;;;;;;;17.40;5.30;;;;;;;10.27;45.74;101305.89;107040;1252;66011;-68
2024/02/28 11:14:24;;;;;;;22.40;6.20;;;;;;;10.20;45.89;101305.90;107108;1251;60458;-69
2024/02/28 11:17:04;;;;;;;29.40;6.40;;;;;;;10.19;46.11;101306.83;107130;1253;60672;-68
2024/02/28 11:19:32;;;;;;;22.60;6.00;;;;;;;10.24;46.33;101306.77;106883;1252;65451;-68
2024/02/28 11:21:59;;;;;;;20.20;6.10;;;;;;;10.30;45.74;101307.39;107123;1253;60566;-68
2024/02/28 11:24:32;;;;;;;20.50;5.70;;;;;;;10.34;45.28;101306.64;107137;1253;65800;-68